createdAt,value
2023-04-05T00:02:24.774Z,14.77
2023-04-05T00:04:57.473Z,13.37
2023-04-05T00:07:26.413Z,13.63
2023-04-05T00:09:53.600Z,14.63
2023-04-05T00:12:21.500Z,15.03
2023-04-05T00:14:48.711Z,14.03
2023-04-05T00:17:15.569Z,15.23
2023-04-05T00:19:43.316Z,12.63
2023-04-05T00:22:10.677Z,15.27
2023-04-05T00:24:43.545Z,15.33
2023-04-05T00:27:10.698Z,12.10
2023-04-05T00:29:37.551Z,14.93
2023-04-05T00:32:04.863Z,13.00
2023-04-05T00:34:33.496Z,15.23
2023-04-05T00:37:03.425Z,16.23
2023-04-05T00:39:30.312Z,15.90
2023-04-05T00:42:02.189Z,16.70
2023-04-05T00:44:29.048Z,14.00
2023-04-05T00:46:58.772Z,15.10
2023-04-05T00:49:25.840Z,16.17
2023-04-05T00:51:53.624Z,11.97
2023-04-05T00:54:24.573Z,12.87
2023-04-05T00:56:53.221Z,14.80
2023-04-05T00:59:20.252Z,13.33
2023-04-05T01:01:55.177Z,14.90
2023-04-05T01:04:26.570Z,11.67
2023-04-05T01:07:02.276Z,15.60
2023-04-05T01:09:53.324Z,14.43
2023-04-05T01:12:22.638Z,13.90
2023-04-05T01:14:52.035Z,14.70
2023-04-05T01:17:23.118Z,17.53
2023-04-05T01:19:53.406Z,13.90
2023-04-05T01:22:47.400Z,14.97
2023-04-05T01:25:43.376Z,18.80
2023-04-05T01:28:57.740Z,15.87
2023-04-05T01:31:41.821Z,13.40
2023-04-05T01:34:24.674Z,12.43
2023-04-05T01:37:02.722Z,11.97
2023-04-05T01:39:31.175Z,14.43
2023-04-05T01:42:02.019Z,15.73
2023-04-05T01:44:29.576Z,12.47
2023-04-05T01:47:01.549Z,17.40
2023-04-05T01:49:30.248Z,12.70
2023-04-05T01:51:57.006Z,14.13
2023-04-05T01:54:23.746Z,11.93
2023-04-05T01:56:50.739Z,11.63
2023-04-05T01:59:17.531Z,11.80
2023-04-05T02:01:44.338Z,14.90
2023-04-05T02:04:11.015Z,14.80
2023-04-05T02:06:38.789Z,11.77
2023-04-05T02:09:06.357Z,12.20
2023-04-05T02:11:33.085Z,15.23
2023-04-05T02:13:59.915Z,14.83
2023-04-05T02:16:27.305Z,11.87
2023-04-05T02:18:57.818Z,12.87
2023-04-05T02:21:26.203Z,13.77
2023-04-05T02:23:54.174Z,14.90
2023-04-05T02:26:21.489Z,13.47
2023-04-05T02:28:48.358Z,12.63
2023-04-05T02:31:15.619Z,13.80
2023-04-05T02:33:42.800Z,11.53
2023-04-05T02:36:11.421Z,14.50
2023-04-05T02:38:38.450Z,12.77
2023-04-05T02:41:09.039Z,12.07
2023-04-05T02:43:35.883Z,16.67
2023-04-05T02:46:02.843Z,13.93
2023-04-05T02:48:29.623Z,12.80
2023-04-05T02:50:56.426Z,12.10
2023-04-05T02:53:23.678Z,14.63
2023-04-05T02:55:55.017Z,11.83
2023-04-05T02:58:21.968Z,13.93
2023-04-05T03:00:51.204Z,13.13
2023-04-05T03:03:22.520Z,12.83
2023-04-05T03:05:56.924Z,14.00
2023-04-05T03:08:23.792Z,14.33
2023-04-05T03:10:54.658Z,15.37
2023-04-05T03:13:21.445Z,13.83
2023-04-05T03:15:48.230Z,12.80
2023-04-05T03:18:16.618Z,13.93
2023-04-05T03:20:43.517Z,17.73
2023-04-05T03:23:10.968Z,12.87
2023-04-05T03:25:38.329Z,15.60
2023-04-05T03:28:06.807Z,15.00
2023-04-05T03:30:36.515Z,13.73
2023-04-05T03:33:03.919Z,13.90
2023-04-05T03:35:32.463Z,17.07
2023-04-05T03:37:59.221Z,15.40
2023-04-05T03:40:26.044Z,14.53
2023-04-05T03:42:53.072Z,12.53
2023-04-05T03:45:24.056Z,13.00
2023-04-05T03:47:51.755Z,11.90
2023-04-05T03:50:18.586Z,13.83
2023-04-05T03:52:46.397Z,17.17
2023-04-05T03:55:16.997Z,12.60
2023-04-05T03:57:43.961Z,14.83
2023-04-05T04:00:17.856Z,13.63
2023-04-05T04:02:46.477Z,15.67
2023-04-05T04:05:14.735Z,15.13
2023-04-05T04:07:42.787Z,14.37
2023-04-05T04:10:11.194Z,15.33
2023-04-05T04:12:38.518Z,13.80
2023-04-05T04:15:06.098Z,13.67
2023-04-05T04:17:35.866Z,16.93
2023-04-05T04:20:14.250Z,17.50
2023-04-05T04:22:40.994Z,12.60
2023-04-05T04:25:14.712Z,13.77
2023-04-05T04:27:43.161Z,16.13
2023-04-05T04:30:14.346Z,13.63
2023-04-05T04:32:52.179Z,13.13
2023-04-05T04:35:27.831Z,16.47
2023-04-05T04:37:59.009Z,16.17
2023-04-05T04:40:39.026Z,16.33
2023-04-05T04:43:06.841Z,18.27
2023-04-05T04:45:34.963Z,20.63
2023-04-05T04:48:05.067Z,18.83
2023-04-05T04:50:32.700Z,18.43
2023-04-05T04:53:00.700Z,14.43
2023-04-05T04:55:28.339Z,14.53
2023-04-05T04:57:56.131Z,15.33
2023-04-05T05:00:24.108Z,16.10
2023-04-05T05:02:52.791Z,15.60
2023-04-05T05:05:26.284Z,15.17
2023-04-05T05:07:53.590Z,13.57
2023-04-05T05:10:20.963Z,14.17
2023-04-05T05:12:48.872Z,18.20
2023-04-05T05:15:15.689Z,16.90
2023-04-05T05:17:42.921Z,15.10
2023-04-05T05:20:11.277Z,14.63
2023-04-05T05:22:39.331Z,18.80
2023-04-05T05:25:07.381Z,18.83
2023-04-05T05:27:34.465Z,17.77
2023-04-05T05:30:01.372Z,17.43
2023-04-05T05:32:28.303Z,16.37
2023-04-05T05:34:55.271Z,15.77
2023-04-05T05:37:32.578Z,17.13
2023-04-05T05:39:59.864Z,16.83
2023-04-05T05:42:27.489Z,17.83
2023-04-05T05:44:54.505Z,17.13
2023-04-05T05:47:21.795Z,19.60
2023-04-05T05:49:49.690Z,15.93
2023-04-05T05:52:16.814Z,15.87
2023-04-05T05:54:43.608Z,13.60
2023-04-05T05:57:10.375Z,16.87
2023-04-05T05:59:37.158Z,17.93
2023-04-05T06:02:04.171Z,13.63
2023-04-05T06:04:31.242Z,13.87
2023-04-05T06:06:58.427Z,17.27
2023-04-05T06:09:25.811Z,15.50
2023-04-05T06:11:57.319Z,12.53
2023-04-05T06:14:25.385Z,15.00
2023-04-05T06:16:52.451Z,15.57
2023-04-05T06:19:19.289Z,18.03
2023-04-05T06:21:46.230Z,15.53
2023-04-05T06:24:13.079Z,17.90
2023-04-05T06:26:39.927Z,17.93
2023-04-05T06:29:07.064Z,17.87
2023-04-05T06:31:35.803Z,17.33
2023-04-05T06:34:03.015Z,16.43
2023-04-05T06:36:34.165Z,14.97
2023-04-05T06:39:01.463Z,16.17
2023-04-05T06:41:28.347Z,17.87
2023-04-05T06:43:56.411Z,16.77
2023-04-05T06:46:24.176Z,21.13
2023-04-05T06:48:51.993Z,16.17
2023-04-05T06:51:19.172Z,23.33
2023-04-05T06:53:46.529Z,29.77
2023-04-05T06:56:13.546Z,14.33
2023-04-05T06:58:40.499Z,21.10
2023-04-05T07:01:08.257Z,19.20
2023-04-05T07:03:35.607Z,20.63
2023-04-05T07:06:03.037Z,20.33
2023-04-05T07:08:32.675Z,17.60
2023-04-05T07:10:59.675Z,21.73
2023-04-05T07:13:26.566Z,15.50
2023-04-05T07:16:00.522Z,15.73
2023-04-05T07:18:27.462Z,15.73
2023-04-05T07:21:02.546Z,13.90
2023-04-05T07:23:29.775Z,16.33
2023-04-05T07:26:04.489Z,13.17
2023-04-05T07:28:33.273Z,15.37
2023-04-05T07:31:00.154Z,14.27
2023-04-05T07:33:27.235Z,13.37
2023-04-05T07:35:57.669Z,16.63
2023-04-05T07:38:24.967Z,21.37
2023-04-05T07:40:52.166Z,18.57
2023-04-05T07:43:19.829Z,23.90
2023-04-05T07:45:46.654Z,17.50
2023-04-05T07:48:13.551Z,15.97
2023-04-05T07:50:42.433Z,16.27
2023-04-05T07:53:09.446Z,16.10
2023-04-05T07:55:39.083Z,14.47
2023-04-05T07:58:05.788Z,13.60
2023-04-05T08:00:32.630Z,16.70
2023-04-05T08:03:02.106Z,14.40
2023-04-05T08:05:29.465Z,13.47
2023-04-05T08:07:58.190Z,11.03
2023-04-05T08:10:25.648Z,11.23
2023-04-05T08:12:52.857Z,12.40
2023-04-05T08:15:19.669Z,10.87
2023-04-05T08:17:46.510Z,9.83
2023-04-05T08:20:13.643Z,10.77
2023-04-05T08:22:41.560Z,9.13
2023-04-05T08:25:09.169Z,9.17
2023-04-05T08:27:35.869Z,11.77
2023-04-05T08:30:02.643Z,9.60
2023-04-05T08:32:29.447Z,12.37
2023-04-05T08:34:56.211Z,9.47
2023-04-05T08:37:22.951Z,10.30
2023-04-05T08:39:49.800Z,12.27
2023-04-05T08:42:19.044Z,10.33
2023-04-05T08:44:51.447Z,12.80
2023-04-05T08:47:19.968Z,9.93
2023-04-05T08:49:46.808Z,8.70
2023-04-05T08:52:13.659Z,10.87
2023-04-05T08:54:40.768Z,9.37
2023-04-05T08:57:08.523Z,8.83
2023-04-05T08:59:41.051Z,12.13
2023-04-05T09:02:17.482Z,11.13
2023-04-05T09:04:45.475Z,9.97
2023-04-05T09:07:17.283Z,7.83
2023-04-05T09:09:48.785Z,7.53
2023-04-05T09:12:16.016Z,9.57
2023-04-05T09:14:43.652Z,9.37
2023-04-05T09:17:11.254Z,10.80
2023-04-05T09:19:38.341Z,7.87
2023-04-05T09:22:08.716Z,8.00
2023-04-05T09:24:44.881Z,8.97
2023-04-05T09:27:19.769Z,8.43
2023-04-05T09:29:55.828Z,8.20
2023-04-05T09:32:28.489Z,7.17
2023-04-05T09:34:56.499Z,9.43
2023-04-05T09:37:23.588Z,8.70
2023-04-05T09:39:53.506Z,8.53
2023-04-05T09:42:27.776Z,11.00
2023-04-05T09:44:56.029Z,9.70
2023-04-05T09:47:32.065Z,9.27
2023-04-05T09:49:59.460Z,7.67
2023-04-05T09:52:34.407Z,9.40
2023-04-05T09:55:07.008Z,12.47
2023-04-05T09:57:36.335Z,8.13
2023-04-05T10:00:05.797Z,7.20
2023-04-05T10:02:56.195Z,8.47
2023-04-05T10:05:28.773Z,9.87
2023-04-05T10:07:56.444Z,8.43
2023-04-05T10:10:24.004Z,10.83
2023-04-05T10:12:51.479Z,7.63
2023-04-05T10:15:24.723Z,8.43
2023-04-05T10:17:58.547Z,9.57
2023-04-05T10:20:28.061Z,8.77
2023-04-05T10:23:10.358Z,10.40
2023-04-05T10:25:53.336Z,9.63
2023-04-05T10:28:36.776Z,8.03
2023-04-05T10:31:37.730Z,9.47
2023-04-05T10:34:13.792Z,10.07
2023-04-05T10:37:01.905Z,10.03
2023-04-05T10:39:45.895Z,9.43
2023-04-05T10:42:28.244Z,11.93
2023-04-05T10:45:04.712Z,10.43
2023-04-05T10:47:36.918Z,10.50
2023-04-05T10:50:08.652Z,11.50
2023-04-05T10:52:37.129Z,13.67
2023-04-05T10:55:05.052Z,9.63
2023-04-05T10:57:32.836Z,10.30
2023-04-05T11:00:00.874Z,9.60
2023-04-05T11:02:29.938Z,9.20
2023-04-05T11:04:57.160Z,11.80
2023-04-05T11:07:24.357Z,10.77
2023-04-05T11:10:02.082Z,11.93
2023-04-05T11:12:47.201Z,8.80
2023-04-05T11:15:28.992Z,12.27
2023-04-05T11:18:03.627Z,10.80
2023-04-05T11:20:45.446Z,9.47
2023-04-05T11:23:18.915Z,9.50
2023-04-05T11:26:06.639Z,11.63
2023-04-05T11:28:39.575Z,9.60
2023-04-05T11:31:22.823Z,8.33
2023-04-05T11:33:59.841Z,10.77
2023-04-05T11:36:41.853Z,10.27
2023-04-05T11:39:23.503Z,10.80
2023-04-05T11:42:05.282Z,8.43
2023-04-05T11:44:49.344Z,11.93
2023-04-05T11:47:22.375Z,11.20
2023-04-05T11:49:52.443Z,8.03
2023-04-05T11:52:21.331Z,9.70
2023-04-05T11:54:49.474Z,10.93
2023-04-05T11:57:22.415Z,9.93
2023-04-05T11:59:53.353Z,8.63
2023-04-05T12:02:21.014Z,11.37
2023-04-05T12:04:56.131Z,7.97
2023-04-05T12:07:26.565Z,8.43
2023-04-05T12:10:03.760Z,10.47
2023-04-05T12:12:35.313Z,12.10
2023-04-05T12:15:06.350Z,10.93
2023-04-05T12:17:40.573Z,10.00
2023-04-05T12:20:08.143Z,11.73
2023-04-05T12:22:36.240Z,8.03
2023-04-05T12:25:03.468Z,9.83
2023-04-05T12:27:30.447Z,9.13
2023-04-05T12:30:09.701Z,8.90
2023-04-05T12:32:59.929Z,9.57
2023-04-05T12:35:34.618Z,8.93
2023-04-05T12:38:03.359Z,8.63
2023-04-05T12:40:33.067Z,10.83
2023-04-05T12:43:08.287Z,9.40
2023-04-05T12:45:44.594Z,10.43
2023-04-05T12:48:15.871Z,12.60
2023-04-05T12:50:51.832Z,8.13
2023-04-05T12:53:21.182Z,8.07
2023-04-05T12:56:01.674Z,9.17
2023-04-05T12:58:36.429Z,10.30
2023-04-05T13:01:04.100Z,9.60
2023-04-05T13:03:31.469Z,9.10
2023-04-05T13:06:01.363Z,10.37
2023-04-05T13:08:30.493Z,9.50
2023-04-05T13:10:58.227Z,10.57
2023-04-05T13:13:25.573Z,8.80
2023-04-05T13:15:52.612Z,8.80
2023-04-05T13:18:19.656Z,10.17
2023-04-05T13:20:46.686Z,9.77
2023-04-05T13:23:13.720Z,15.73
2023-04-05T13:25:42.199Z,9.40
2023-04-05T13:28:09.481Z,8.87
2023-04-05T13:30:36.337Z,10.93
2023-04-05T13:33:04.647Z,9.60
2023-04-05T13:35:31.989Z,8.30
2023-04-05T13:38:04.318Z,8.60
2023-04-05T13:40:32.269Z,10.53
2023-04-05T13:42:59.165Z,9.67
2023-04-05T13:45:26.326Z,9.67
2023-04-05T13:47:56.216Z,11.10
2023-04-05T13:50:26.033Z,9.50
2023-04-05T13:52:52.881Z,10.07
2023-04-05T13:55:19.724Z,9.57
2023-04-05T13:57:46.719Z,10.10
2023-04-05T14:00:16.894Z,8.80
2023-04-05T14:02:43.935Z,10.87
2023-04-05T14:05:10.812Z,10.90
2023-04-05T14:07:37.794Z,9.70
2023-04-05T14:10:06.513Z,9.97
2023-04-05T14:12:36.598Z,11.00
2023-04-05T14:15:03.535Z,15.03
2023-04-05T14:17:30.366Z,10.13
2023-04-05T14:19:57.124Z,9.03
2023-04-05T14:22:23.832Z,8.80
2023-04-05T14:24:53.214Z,9.47
2023-04-05T14:27:26.388Z,9.73
2023-04-05T14:29:57.130Z,9.23
2023-04-05T14:32:26.868Z,10.23
2023-04-05T14:34:53.770Z,8.70
2023-04-05T14:37:20.522Z,9.33
2023-04-05T14:39:47.255Z,10.90
2023-04-05T14:42:14.160Z,13.27
2023-04-05T14:44:40.992Z,10.50
2023-04-05T14:47:07.776Z,11.03
2023-04-05T14:49:34.501Z,15.13
2023-04-05T14:52:02.411Z,11.13
2023-04-05T14:54:29.425Z,8.77
2023-04-05T14:56:56.118Z,12.40
2023-04-05T14:59:22.984Z,10.37
2023-04-05T15:01:50.423Z,12.03
2023-04-05T15:04:18.428Z,10.90
2023-04-05T15:06:45.378Z,12.23
2023-04-05T15:09:12.611Z,11.60
2023-04-05T15:11:40.287Z,12.53
2023-04-05T15:14:15.663Z,13.00
2023-04-05T15:16:51.497Z,10.33
2023-04-05T15:19:18.634Z,9.00
2023-04-05T15:21:45.382Z,11.33
2023-04-05T15:24:12.166Z,10.17
2023-04-05T15:26:40.913Z,9.77
2023-04-05T15:29:07.623Z,12.37
2023-04-05T15:31:34.764Z,10.40
2023-04-05T15:34:01.746Z,10.23
2023-04-05T15:36:28.779Z,10.97
2023-04-05T15:38:55.455Z,12.70
2023-04-05T15:41:24.972Z,12.03
2023-04-05T15:43:54.481Z,11.43
2023-04-05T15:46:21.263Z,11.93
2023-04-05T15:48:48.117Z,10.07
2023-04-05T15:51:15.322Z,13.50
2023-04-05T15:53:42.179Z,13.00
2023-04-05T15:56:08.978Z,12.27
2023-04-05T15:58:38.639Z,10.87
2023-04-05T16:01:06.012Z,12.73
2023-04-05T16:03:33.154Z,11.27
2023-04-05T16:06:00.032Z,13.37
2023-04-05T16:08:27.014Z,14.70
2023-04-05T16:10:53.968Z,12.30
2023-04-05T16:13:20.726Z,10.60
2023-04-05T16:15:50.617Z,13.20
2023-04-05T16:18:19.642Z,10.97
2023-04-05T16:20:47.096Z,12.13
2023-04-05T16:23:14.633Z,10.87
2023-04-05T16:25:41.400Z,12.00
2023-04-05T16:28:08.189Z,9.33
2023-04-05T16:30:37.857Z,12.13
2023-04-05T16:33:08.193Z,13.53
2023-04-05T16:35:35.013Z,13.20
2023-04-05T16:38:02.712Z,12.03
2023-04-05T16:40:32.840Z,12.77
2023-04-05T16:42:59.561Z,9.70
2023-04-05T16:45:28.630Z,10.63
2023-04-05T16:47:55.406Z,12.83
2023-04-05T16:50:25.172Z,12.40
2023-04-05T16:52:54.518Z,12.63
2023-04-05T16:55:21.426Z,16.10
2023-04-05T16:57:48.197Z,14.10
2023-04-05T17:00:15.513Z,13.83
2023-04-05T17:02:42.313Z,12.63
2023-04-05T17:05:09.282Z,13.37
2023-04-05T17:07:35.967Z,13.77
2023-04-05T17:10:04.565Z,14.33
2023-04-05T17:12:33.330Z,11.00
2023-04-05T17:15:00.175Z,11.33
2023-04-05T17:17:27.266Z,11.90
2023-04-05T17:19:53.959Z,12.00
2023-04-05T17:22:20.885Z,13.23
2023-04-05T17:24:47.697Z,12.73
2023-04-05T17:27:14.609Z,12.80
2023-04-05T17:29:41.440Z,11.07
2023-04-05T17:32:08.358Z,13.63
2023-04-05T17:34:35.292Z,13.37
2023-04-05T17:37:02.069Z,11.47
2023-04-05T17:39:29.037Z,14.07
2023-04-05T17:41:56.679Z,14.20
2023-04-05T17:44:23.549Z,13.07
2023-04-05T17:47:01.183Z,10.13
2023-04-05T17:49:36.450Z,15.50
2023-04-05T17:52:04.390Z,14.13
2023-04-05T17:54:32.192Z,15.90
2023-04-05T17:56:58.860Z,11.57
2023-04-05T17:59:25.816Z,13.47
2023-04-05T18:01:53.761Z,12.97
2023-04-05T18:04:21.851Z,14.40
2023-04-05T18:06:48.729Z,13.20
2023-04-05T18:09:15.584Z,13.63
2023-04-05T18:11:42.324Z,13.13
2023-04-05T18:14:09.258Z,12.33
2023-04-05T18:16:36.105Z,11.30
2023-04-05T18:19:03.241Z,12.80
2023-04-05T18:21:31.221Z,13.60
2023-04-05T18:24:01.177Z,11.77
2023-04-05T18:26:28.470Z,13.43
2023-04-05T18:28:59.800Z,12.27
2023-04-05T18:31:28.139Z,12.43
2023-04-05T18:33:55.107Z,14.57
2023-04-05T18:36:25.674Z,11.43
2023-04-05T18:38:58.585Z,10.53
2023-04-05T18:41:25.433Z,10.87
2023-04-05T18:43:55.827Z,16.93
2023-04-05T18:46:25.826Z,14.17
2023-04-05T18:48:56.800Z,14.47
2023-04-05T18:51:26.134Z,12.50
2023-04-05T18:53:54.235Z,14.17
2023-04-05T18:56:21.369Z,12.77
2023-04-05T18:58:48.369Z,12.53
2023-04-05T19:01:17.194Z,11.87
2023-04-05T19:03:45.400Z,15.40
2023-04-05T19:06:13.025Z,12.70
2023-04-05T19:08:39.989Z,13.47
2023-04-05T19:11:07.351Z,11.77
2023-04-05T19:13:34.516Z,13.77
2023-04-05T19:16:01.666Z,14.50
2023-04-05T19:18:29.773Z,11.83
2023-04-05T19:20:58.399Z,15.03
2023-04-05T19:23:26.443Z,13.00
2023-04-05T19:25:57.676Z,13.57
2023-04-05T19:28:25.018Z,14.07
2023-04-05T19:30:51.761Z,14.80
2023-04-05T19:33:21.037Z,15.20
2023-04-05T19:35:48.872Z,14.10
2023-04-05T19:38:15.816Z,15.13
2023-04-05T19:40:42.920Z,15.23
2023-04-05T19:43:10.203Z,13.33
2023-04-05T19:45:37.187Z,14.37
2023-04-05T19:48:28.021Z,18.00
2023-04-05T19:50:56.426Z,15.63
2023-04-05T19:53:32.686Z,15.30
2023-04-05T19:56:02.990Z,17.53
2023-04-05T19:58:30.612Z,15.17
2023-04-05T20:00:57.395Z,14.67
2023-04-05T20:03:38.689Z,14.33
2023-04-05T20:06:10.224Z,18.33
2023-04-05T20:08:47.461Z,14.97
2023-04-05T20:11:22.213Z,15.43
2023-04-05T20:13:55.197Z,16.10
2023-04-05T20:16:29.500Z,21.37
2023-04-05T20:19:06.712Z,20.60
2023-04-05T20:21:33.874Z,17.83
2023-04-05T20:24:01.629Z,18.03
2023-04-05T20:26:35.249Z,19.13
2023-04-05T20:29:04.167Z,16.20
2023-04-05T20:31:33.157Z,16.40
2023-04-05T20:34:05.955Z,18.53
2023-04-05T20:36:55.014Z,17.43
2023-04-05T20:39:23.745Z,14.70
2023-04-05T20:41:50.592Z,20.90
2023-04-05T20:44:17.541Z,21.33
2023-04-05T20:46:50.245Z,21.50
2023-04-05T20:49:17.469Z,19.43
2023-04-05T20:51:44.169Z,18.57
2023-04-05T20:54:11.518Z,18.07
2023-04-05T20:56:38.405Z,21.90
2023-04-05T20:59:05.768Z,16.33
2023-04-05T21:01:32.626Z,18.00
2023-04-05T21:03:59.331Z,20.47
2023-04-05T21:06:26.454Z,19.30
2023-04-05T21:08:53.272Z,21.60
2023-04-05T21:11:20.021Z,20.40
2023-04-05T21:13:46.952Z,16.77
2023-04-05T21:16:14.017Z,18.77
2023-04-05T21:18:40.749Z,18.50
2023-04-05T21:21:07.519Z,17.73
2023-04-05T21:23:34.634Z,17.80
2023-04-05T21:26:01.589Z,19.80
2023-04-05T21:28:28.354Z,16.33
2023-04-05T21:30:55.609Z,20.07
2023-04-05T21:33:22.524Z,17.80
2023-04-05T21:35:50.728Z,16.77
2023-04-05T21:38:18.029Z,20.37
2023-04-05T21:40:44.985Z,17.47
2023-04-05T21:43:13.283Z,16.40
2023-04-05T21:45:40.296Z,18.63
2023-04-05T21:48:10.232Z,16.93
2023-04-05T21:50:37.559Z,17.80
2023-04-05T21:53:05.365Z,16.87
2023-04-05T21:55:32.158Z,15.73
2023-04-05T21:57:58.940Z,18.53
2023-04-05T22:00:26.168Z,20.00
2023-04-05T22:02:55.901Z,16.20
2023-04-05T22:05:36.225Z,15.10
2023-04-05T22:08:03.745Z,12.73
2023-04-05T22:10:30.534Z,15.77
2023-04-05T22:13:01.443Z,17.10
2023-04-05T22:15:31.391Z,15.93
2023-04-05T22:17:58.261Z,14.00
2023-04-05T22:20:25.271Z,15.87
2023-04-05T22:22:52.987Z,15.60
2023-04-05T22:25:19.686Z,14.90
2023-04-05T22:27:46.330Z,17.70
2023-04-05T22:30:13.802Z,15.17
2023-04-05T22:32:40.849Z,19.03
2023-04-05T22:35:07.858Z,14.23
2023-04-05T22:37:37.746Z,14.50
2023-04-05T22:40:05.195Z,15.03
2023-04-05T22:42:32.110Z,15.27
2023-04-05T22:44:59.007Z,19.80
2023-04-05T22:47:26.114Z,16.37
2023-04-05T22:49:53.009Z,13.03
2023-04-05T22:52:19.895Z,17.57
2023-04-05T22:54:46.741Z,15.43
2023-04-05T22:57:13.580Z,15.23
2023-04-05T22:59:40.541Z,14.40
2023-04-05T23:02:07.406Z,17.30
2023-04-05T23:04:34.183Z,16.07
2023-04-05T23:07:00.998Z,13.30
2023-04-05T23:09:27.910Z,17.00
2023-04-05T23:11:54.762Z,14.23
2023-04-05T23:14:22.285Z,13.00
2023-04-05T23:16:49.103Z,17.43
2023-04-05T23:19:19.453Z,13.47
2023-04-05T23:21:46.153Z,15.97
2023-04-05T23:24:13.068Z,11.83
2023-04-05T23:26:39.913Z,16.60
2023-04-05T23:29:06.915Z,16.10
2023-04-05T23:31:36.967Z,16.33
2023-04-05T23:34:03.915Z,13.67
2023-04-05T23:36:30.845Z,16.10
2023-04-05T23:38:58.633Z,14.20
2023-04-05T23:41:30.005Z,13.17
2023-04-05T23:43:56.976Z,13.33
2023-04-05T23:46:23.930Z,12.87
2023-04-05T23:48:50.958Z,17.57
2023-04-05T23:51:17.830Z,15.97
2023-04-05T23:53:44.622Z,15.17
2023-04-05T23:56:19.204Z,15.53
2023-04-05T23:58:46.109Z,13.27
